createdAt,value
2022-12-08T00:01:34.075Z,7.80
2022-12-08T00:04:03.672Z,7.00
2022-12-08T00:06:54.479Z,6.90
2022-12-08T00:09:39.121Z,6.70
2022-12-08T00:12:11.976Z,7.20
2022-12-08T00:14:42.628Z,7.30
2022-12-08T00:17:14.098Z,6.90
2022-12-08T00:19:43.304Z,6.20
2022-12-08T00:22:15.319Z,6.30
2022-12-08T00:24:45.641Z,6.20
2022-12-08T00:27:18.640Z,6.30
2022-12-08T00:29:46.550Z,5.40
2022-12-08T00:32:15.095Z,5.80
2022-12-08T00:34:42.961Z,6.20
2022-12-08T00:37:10.750Z,7.90
2022-12-08T00:39:38.521Z,9.40
2022-12-08T00:42:13.767Z,13.70
2022-12-08T00:44:43.875Z,17.10
2022-12-08T00:47:12.947Z,16.60
2022-12-08T00:49:41.479Z,11.50
2022-12-08T00:52:09.807Z,14.70
2022-12-08T00:54:37.686Z,19.80
2022-12-08T00:57:05.684Z,23.70
2022-12-08T00:59:33.549Z,21.20
2022-12-08T01:02:01.668Z,19.40
2022-12-08T01:04:29.645Z,16.90
2022-12-08T01:06:57.568Z,13.00
2022-12-08T01:09:25.450Z,12.50
2022-12-08T01:11:53.332Z,16.40
2022-12-08T01:14:22.464Z,16.20
2022-12-08T01:16:50.587Z,14.80
2022-12-08T01:19:18.895Z,13.70
2022-12-08T01:21:47.229Z,10.40
2022-12-08T01:24:19.128Z,8.50
2022-12-08T01:26:49.368Z,7.60
2022-12-08T01:29:17.291Z,6.90
2022-12-08T01:31:45.232Z,7.60
2022-12-08T01:34:13.302Z,6.50
2022-12-08T01:36:42.130Z,7.10
2022-12-08T01:39:15.735Z,6.40
2022-12-08T01:41:45.269Z,9.60
2022-12-08T01:44:52.895Z,9.60
2022-12-08T01:47:22.889Z,9.90
2022-12-08T01:49:51.083Z,12.20
2022-12-08T01:52:29.568Z,12.00
2022-12-08T01:55:08.723Z,15.50
2022-12-08T01:57:43.024Z,16.10
2022-12-08T02:00:17.140Z,15.20
2022-12-08T02:02:56.621Z,15.10
2022-12-08T02:05:29.554Z,16.00
2022-12-08T02:07:58.674Z,14.40
2022-12-08T02:10:30.491Z,13.90
2022-12-08T02:13:00.450Z,13.40
2022-12-08T02:15:42.915Z,13.20
2022-12-08T02:18:57.667Z,13.60
2022-12-08T02:21:59.345Z,12.60
2022-12-08T02:24:38.274Z,14.10
2022-12-08T02:27:38.431Z,13.90
2022-12-08T02:30:23.601Z,13.50
2022-12-08T02:33:23.775Z,13.00
2022-12-08T02:36:07.610Z,13.90
2022-12-08T02:38:48.738Z,14.00
2022-12-08T02:41:47.047Z,11.90
2022-12-08T02:44:24.728Z,11.70
2022-12-08T02:46:56.364Z,12.00
2022-12-08T02:49:35.293Z,11.30
2022-12-08T02:52:27.726Z,9.90
2022-12-08T02:55:02.009Z,9.90
2022-12-08T02:57:51.939Z,11.00
2022-12-08T03:00:22.467Z,13.90
2022-12-08T03:03:07.952Z,11.20
2022-12-08T03:05:55.798Z,14.80
2022-12-08T03:08:45.975Z,14.90
2022-12-08T03:11:22.139Z,15.90
2022-12-08T03:13:54.811Z,15.30
2022-12-08T03:16:27.513Z,15.70
2022-12-08T03:19:09.291Z,14.80
2022-12-08T03:21:41.254Z,13.70
2022-12-08T03:24:11.254Z,13.70
2022-12-08T03:26:48.659Z,12.80
2022-12-08T03:29:16.940Z,11.60
2022-12-08T03:31:54.002Z,11.60
2022-12-08T03:34:26.025Z,11.80
2022-12-08T03:36:54.059Z,11.30
2022-12-08T03:39:22.151Z,12.30
2022-12-08T03:41:50.363Z,12.00
2022-12-08T03:44:18.284Z,11.70
2022-12-08T03:46:46.115Z,13.30
2022-12-08T03:49:14.084Z,11.80
2022-12-08T03:51:41.852Z,11.00
2022-12-08T03:54:09.645Z,11.10
2022-12-08T03:56:39.402Z,11.50
2022-12-08T03:59:08.133Z,10.70
2022-12-08T04:01:36.346Z,10.90
2022-12-08T04:04:04.646Z,11.50
2022-12-08T04:06:32.946Z,10.70
2022-12-08T04:09:00.859Z,10.20
2022-12-08T04:11:28.837Z,10.40
2022-12-08T04:13:58.185Z,10.20
2022-12-08T04:16:27.943Z,9.80
2022-12-08T04:18:56.255Z,11.00
2022-12-08T04:21:27.824Z,11.10
2022-12-08T04:24:00.864Z,10.20
2022-12-08T04:26:29.351Z,11.10
2022-12-08T04:28:57.625Z,11.90
2022-12-08T04:31:25.530Z,12.30
2022-12-08T04:33:53.414Z,13.30
2022-12-08T04:36:21.214Z,12.10
2022-12-08T04:38:49.025Z,10.50
2022-12-08T04:41:16.866Z,12.60
2022-12-08T04:43:45.011Z,11.10
2022-12-08T04:46:12.892Z,12.40
2022-12-08T04:48:41.828Z,14.70
2022-12-08T04:51:17.093Z,15.10
2022-12-08T04:53:46.845Z,16.00
2022-12-08T04:56:16.943Z,15.90
2022-12-08T04:58:45.698Z,14.20
2022-12-08T05:01:14.280Z,13.80
2022-12-08T05:03:42.365Z,12.60
2022-12-08T05:06:13.285Z,11.90
2022-12-08T05:08:42.630Z,12.40
2022-12-08T05:11:12.262Z,12.60
2022-12-08T05:13:40.451Z,12.90
2022-12-08T05:16:11.814Z,11.80
2022-12-08T05:18:41.154Z,12.70
2022-12-08T05:21:09.933Z,11.30
2022-12-08T05:23:38.329Z,12.00
2022-12-08T05:26:06.350Z,13.40
2022-12-08T05:28:42.988Z,24.30
2022-12-08T05:31:14.342Z,26.00
2022-12-08T05:33:44.910Z,23.10
2022-12-08T05:36:14.962Z,22.80
2022-12-08T05:38:45.306Z,24.60
2022-12-08T05:41:17.066Z,16.40
2022-12-08T05:43:45.664Z,16.20
2022-12-08T05:46:14.925Z,16.80
2022-12-08T05:48:45.867Z,15.60
2022-12-08T05:51:19.890Z,14.00
2022-12-08T05:53:51.787Z,13.20
2022-12-08T05:56:21.094Z,13.90
2022-12-08T05:58:49.673Z,12.20
2022-12-08T06:01:23.076Z,13.30
2022-12-08T06:03:52.078Z,15.80
2022-12-08T06:06:20.611Z,16.70
2022-12-08T06:08:48.905Z,16.30
2022-12-08T06:11:27.204Z,16.60
2022-12-08T06:13:56.794Z,20.00
2022-12-08T06:16:26.776Z,10.70
2022-12-08T06:18:55.921Z,17.70
2022-12-08T06:21:24.372Z,15.80
2022-12-08T06:23:53.866Z,17.20
2022-12-08T06:26:22.205Z,15.40
2022-12-08T06:28:50.518Z,12.40
2022-12-08T06:31:21.352Z,12.00
2022-12-08T06:33:49.895Z,13.70
2022-12-08T06:36:19.902Z,14.00
2022-12-08T06:38:48.272Z,12.60
2022-12-08T06:41:17.202Z,13.50
2022-12-08T06:43:45.412Z,12.90
2022-12-08T06:46:16.345Z,14.90
2022-12-08T06:48:45.011Z,13.90
2022-12-08T06:51:31.608Z,16.20
2022-12-08T06:54:16.341Z,15.90
2022-12-08T06:56:44.274Z,15.80
2022-12-08T06:59:12.095Z,15.20
2022-12-08T07:01:40.137Z,14.50
2022-12-08T07:04:08.340Z,15.50
2022-12-08T07:06:36.562Z,14.10
2022-12-08T07:09:10.861Z,12.90
2022-12-08T07:12:01.382Z,12.90
2022-12-08T07:14:56.678Z,13.70
2022-12-08T07:17:38.424Z,13.50
2022-12-08T07:20:10.733Z,12.90
2022-12-08T07:23:21.508Z,13.90
2022-12-08T07:26:19.346Z,15.00
2022-12-08T07:29:26.429Z,20.80
2022-12-08T07:32:27.333Z,15.40
2022-12-08T07:36:02.123Z,16.60
2022-12-08T07:38:47.291Z,62.80
2022-12-08T07:41:23.925Z,37.30
2022-12-08T07:44:00.342Z,21.60
2022-12-08T07:46:54.219Z,20.70
2022-12-08T07:49:34.883Z,20.60
2022-12-08T07:52:06.879Z,21.40
2022-12-08T07:54:50.291Z,18.90
2022-12-08T07:57:37.183Z,17.70
2022-12-08T08:00:21.619Z,18.20
2022-12-08T08:02:56.254Z,17.50
2022-12-08T08:05:29.024Z,17.20
2022-12-08T08:07:57.655Z,17.50
2022-12-08T08:10:27.042Z,17.20
2022-12-08T08:13:06.890Z,16.70
2022-12-08T08:16:00.349Z,17.80
2022-12-08T08:18:31.473Z,22.90
2022-12-08T08:21:15.893Z,25.40
2022-12-08T08:23:57.362Z,22.70
2022-12-08T08:26:27.750Z,24.20
2022-12-08T08:28:58.058Z,30.50
2022-12-08T08:31:29.051Z,32.30
2022-12-08T08:34:05.003Z,30.40
2022-12-08T08:36:33.311Z,29.70
2022-12-08T08:39:11.550Z,30.20
2022-12-08T08:41:51.459Z,29.10
2022-12-08T08:44:25.372Z,28.90
2022-12-08T08:46:54.633Z,33.10
2022-12-08T08:49:22.704Z,33.90
2022-12-08T08:51:57.536Z,31.80
2022-12-08T08:54:25.765Z,35.20
2022-12-08T08:57:25.312Z,30.10
2022-12-08T08:59:55.759Z,32.30
2022-12-08T09:02:26.784Z,31.30
2022-12-08T09:05:23.485Z,35.10
2022-12-08T09:07:55.222Z,33.20
2022-12-08T09:10:28.536Z,35.20
2022-12-08T09:13:08.294Z,37.70
2022-12-08T09:15:55.642Z,35.40
2022-12-08T09:19:11.131Z,35.90
2022-12-08T09:22:05.207Z,36.30
2022-12-08T09:24:38.636Z,40.10
2022-12-08T09:27:20.881Z,38.50
2022-12-08T09:30:03.070Z,37.30
2022-12-08T09:32:49.890Z,39.40
2022-12-08T09:35:28.198Z,41.70
2022-12-08T09:37:56.217Z,39.80
2022-12-08T09:40:43.791Z,44.30
2022-12-08T09:43:35.343Z,44.50
2022-12-08T09:46:12.918Z,43.60
2022-12-08T09:49:10.802Z,43.90
2022-12-08T09:51:44.017Z,44.50
2022-12-08T09:54:24.214Z,41.90
2022-12-08T09:57:03.613Z,43.70
2022-12-08T09:59:36.941Z,43.50
2022-12-08T10:02:23.614Z,46.20
2022-12-08T10:05:07.155Z,46.10
2022-12-08T10:07:48.373Z,42.20
2022-12-08T10:10:32.214Z,39.50
2022-12-08T10:13:17.143Z,38.60
2022-12-08T10:17:04.664Z,38.30
2022-12-08T10:19:35.616Z,35.30
2022-12-08T10:24:55.606Z,33.70
2022-12-08T10:27:28.298Z,32.40
2022-12-08T10:30:01.144Z,36.80
2022-12-08T10:32:36.802Z,35.50
2022-12-08T10:35:15.235Z,37.10
2022-12-08T10:37:57.851Z,36.50
2022-12-08T10:40:29.590Z,33.30
2022-12-08T10:43:01.150Z,34.90
2022-12-08T10:45:43.050Z,33.40
2022-12-08T10:48:40.696Z,31.00
2022-12-08T10:51:51.213Z,30.00
2022-12-08T10:54:39.246Z,31.10
2022-12-08T10:57:34.011Z,30.10
2022-12-08T11:00:34.655Z,29.90
2022-12-08T11:03:48.460Z,30.40
2022-12-08T11:06:37.770Z,30.90
2022-12-08T11:09:31.301Z,28.90
2022-12-08T11:12:19.588Z,27.50
2022-12-08T11:15:03.185Z,27.70
2022-12-08T11:17:39.716Z,27.80
2022-12-08T11:20:53.698Z,26.20
2022-12-08T11:48:38.390Z,32.90
2022-12-08T11:51:18.999Z,34.10
2022-12-08T11:54:06.345Z,30.10
2022-12-08T11:56:43.166Z,31.30
2022-12-08T11:59:34.507Z,29.70
2022-12-08T12:02:30.781Z,26.60
2022-12-08T12:08:54.752Z,27.40
2022-12-08T12:12:02.153Z,25.70
2022-12-08T12:17:54.835Z,26.00
2022-12-08T12:22:03.758Z,24.90
2022-12-08T12:24:38.946Z,24.10
2022-12-08T12:27:24.193Z,27.10
2022-12-08T12:30:11.137Z,27.90
2022-12-08T12:32:45.168Z,27.50
2022-12-08T12:35:26.845Z,25.90
2022-12-08T12:38:05.521Z,26.80
2022-12-08T12:40:49.068Z,28.20
2022-12-08T12:43:31.040Z,26.50
2022-12-08T12:46:37.366Z,25.70
2022-12-08T12:49:52.602Z,26.60
2022-12-08T12:52:37.635Z,28.90
2022-12-08T12:55:58.311Z,27.90
2022-12-08T12:58:41.073Z,29.30
2022-12-08T13:01:43.426Z,29.40
2022-12-08T13:04:23.226Z,27.70
2022-12-08T13:07:13.407Z,29.50
2022-12-08T13:10:02.057Z,29.20
2022-12-08T13:12:36.951Z,26.10
2022-12-08T13:15:56.013Z,27.10
2022-12-08T13:18:38.001Z,28.90
2022-12-08T13:22:35.292Z,26.10
2022-12-08T13:30:02.397Z,27.70
2022-12-08T13:33:28.921Z,24.60
2022-12-08T13:36:24.842Z,27.00
2022-12-08T13:39:03.409Z,25.50
2022-12-08T13:41:51.981Z,24.00
2022-12-08T13:45:24.167Z,23.40
2022-12-08T13:48:42.626Z,25.50
2022-12-08T13:56:43.444Z,20.10
2022-12-08T13:57:36.040Z,18.00
2022-12-08T14:00:18.164Z,18.80
2022-12-08T14:02:51.100Z,17.50
2022-12-08T14:05:35.264Z,17.60
2022-12-08T14:08:59.311Z,20.30
2022-12-08T14:11:57.988Z,19.00
2022-12-08T14:17:36.204Z,18.70
2022-12-08T14:20:23.179Z,17.70
2022-12-08T14:22:55.235Z,18.90
2022-12-08T14:25:27.277Z,16.60
2022-12-08T14:28:08.034Z,18.60
2022-12-08T14:30:38.640Z,21.10
2022-12-08T14:33:14.622Z,22.30
2022-12-08T14:35:53.752Z,23.30
2022-12-08T14:38:24.801Z,22.70
2022-12-08T14:41:11.660Z,22.10
2022-12-08T14:43:40.908Z,22.00
2022-12-08T14:46:22.615Z,22.30
2022-12-08T14:48:55.215Z,23.90
2022-12-08T14:51:29.175Z,24.10
2022-12-08T14:54:05.445Z,24.00
2022-12-08T14:56:41.787Z,22.30
2022-12-08T14:59:34.398Z,23.10
2022-12-08T15:02:30.151Z,23.70
2022-12-08T15:05:05.963Z,24.40
2022-12-08T15:07:54.386Z,25.70
2022-12-08T15:10:27.395Z,25.50
2022-12-08T15:13:03.067Z,23.70
2022-12-08T15:15:44.876Z,22.90
2022-12-08T15:18:18.687Z,23.10
2022-12-08T15:20:51.797Z,21.40
2022-12-08T15:23:26.465Z,20.40
2022-12-08T15:25:56.147Z,20.30
2022-12-08T15:28:29.953Z,20.80
2022-12-08T15:30:59.091Z,18.90
2022-12-08T15:33:27.486Z,18.50
2022-12-08T15:35:55.413Z,16.70
2022-12-08T15:38:28.771Z,18.00
2022-12-08T15:40:59.579Z,19.30
2022-12-08T15:43:27.739Z,18.20
2022-12-08T15:46:00.344Z,18.50
2022-12-08T15:48:30.653Z,19.90
2022-12-08T15:50:59.247Z,20.20
2022-12-08T15:53:27.042Z,18.70
2022-12-08T15:56:26.507Z,19.40
2022-12-08T15:58:58.974Z,18.80
2022-12-08T16:01:27.536Z,17.70
2022-12-08T16:09:42.705Z,19.80
2022-12-08T16:13:26.662Z,20.70
2022-12-08T16:18:24.254Z,19.10
2022-12-08T16:21:31.706Z,20.70
2022-12-08T16:23:44.689Z,20.70
2022-12-08T16:26:44.358Z,20.20
2022-12-08T16:29:06.546Z,19.00
2022-12-08T16:31:34.703Z,17.30
2022-12-08T16:34:02.880Z,15.80
2022-12-08T16:36:30.616Z,15.60
2022-12-08T16:38:58.606Z,14.60
2022-12-08T16:41:39.048Z,15.00
2022-12-08T16:44:06.982Z,16.20
2022-12-08T16:46:35.983Z,15.10
2022-12-08T16:49:08.049Z,14.60
2022-12-08T16:51:35.833Z,17.10
2022-12-08T16:54:03.627Z,16.90
2022-12-08T16:56:33.488Z,19.20
2022-12-08T16:59:02.487Z,18.90
2022-12-08T17:01:30.723Z,18.60
2022-12-08T17:06:46.961Z,19.00
2022-12-08T17:09:14.935Z,18.40
2022-12-08T17:11:43.866Z,18.20
2022-12-08T17:14:13.321Z,18.10
2022-12-08T17:16:42.466Z,18.50
2022-12-08T17:19:13.127Z,18.50
2022-12-08T17:21:42.204Z,18.70
2022-12-08T17:24:10.259Z,18.90
2022-12-08T17:26:38.168Z,19.20
2022-12-08T17:29:06.064Z,18.20
2022-12-08T17:31:34.181Z,18.40
2022-12-08T17:34:03.957Z,17.10
2022-12-08T17:36:32.423Z,14.90
2022-12-08T17:39:01.273Z,15.20
2022-12-08T17:41:29.515Z,14.30
2022-12-08T17:43:57.828Z,12.70
2022-12-08T17:46:26.014Z,11.20
2022-12-08T17:48:54.213Z,12.40
2022-12-08T17:51:22.116Z,11.10
2022-12-08T17:53:50.260Z,11.00
2022-12-08T17:56:20.795Z,11.90
2022-12-08T17:58:54.245Z,12.30
2022-12-08T18:01:24.502Z,12.50
2022-12-08T18:03:52.404Z,12.30
2022-12-08T18:06:20.357Z,15.40
2022-12-08T18:08:48.320Z,21.00
2022-12-08T18:11:19.248Z,22.70
2022-12-08T18:13:48.765Z,21.40
2022-12-08T18:16:19.861Z,21.60
2022-12-08T18:18:48.317Z,21.50
2022-12-08T18:21:23.047Z,23.70
2022-12-08T18:23:51.825Z,21.80
2022-12-08T18:26:20.686Z,24.00
2022-12-08T18:28:49.055Z,22.70
2022-12-08T18:31:20.302Z,21.70
2022-12-08T18:33:49.271Z,21.10
2022-12-08T18:36:20.922Z,21.10
2022-12-08T18:38:49.698Z,19.70
2022-12-08T18:41:23.448Z,21.40
2022-12-08T18:43:52.678Z,20.50
2022-12-08T18:46:21.490Z,20.50
2022-12-08T18:48:50.956Z,19.20
2022-12-08T18:51:21.950Z,19.20
2022-12-08T18:53:50.886Z,18.40
2022-12-08T18:56:23.323Z,19.00
2022-12-08T18:58:51.423Z,18.60
2022-12-08T19:01:19.645Z,18.90
2022-12-08T19:04:11.967Z,19.90
2022-12-08T19:06:38.035Z,19.20
2022-12-08T19:09:06.726Z,18.90
2022-12-08T19:11:34.649Z,21.40
2022-12-08T19:14:02.574Z,22.00
2022-12-08T19:16:31.049Z,21.10
2022-12-08T19:18:59.148Z,20.90
2022-12-08T19:21:27.187Z,20.70
2022-12-08T19:23:58.148Z,22.20
2022-12-08T19:26:27.977Z,21.80
2022-12-08T19:28:56.069Z,21.00
2022-12-08T19:31:24.034Z,22.20
2022-12-08T19:33:52.190Z,22.20
2022-12-08T19:36:22.286Z,23.20
2022-12-08T19:39:10.279Z,23.10
2022-12-08T19:41:50.559Z,23.70
2022-12-08T19:44:40.601Z,22.40
2022-12-08T19:47:09.186Z,23.80
2022-12-08T19:49:38.216Z,24.10
2022-12-08T19:52:06.516Z,24.00
2022-12-08T19:54:34.689Z,23.60
2022-12-08T19:57:02.788Z,23.40
2022-12-08T19:59:30.679Z,23.50
2022-12-08T20:01:59.089Z,21.70
2022-12-08T20:04:27.443Z,22.50
2022-12-08T20:06:56.715Z,21.50
2022-12-08T20:09:25.660Z,21.50
2022-12-08T20:11:54.888Z,21.10
2022-12-08T20:14:23.532Z,20.60
2022-12-08T20:16:51.617Z,21.00
2022-12-08T20:19:19.796Z,20.50
2022-12-08T20:21:48.743Z,19.70
2022-12-08T20:24:17.182Z,22.00
2022-12-08T20:26:45.037Z,22.40
2022-12-08T20:29:16.991Z,21.90
2022-12-08T20:31:45.961Z,22.40
2022-12-08T20:34:16.016Z,23.00
2022-12-08T20:36:45.188Z,22.60
2022-12-08T20:39:15.849Z,22.50
2022-12-08T20:41:45.928Z,24.50
2022-12-08T20:44:13.808Z,23.50
2022-12-08T20:46:49.233Z,24.60
2022-12-08T20:49:17.620Z,24.40
2022-12-08T20:51:47.303Z,23.60
2022-12-08T20:54:16.328Z,23.70
2022-12-08T20:56:48.297Z,24.10
2022-12-08T20:59:18.164Z,24.10
2022-12-08T21:01:46.388Z,22.10
2022-12-08T21:04:15.811Z,23.20
2022-12-08T21:06:43.999Z,24.60
2022-12-08T21:09:12.145Z,23.80
2022-12-08T21:11:40.228Z,23.60
2022-12-08T21:14:08.270Z,23.60
2022-12-08T21:16:38.773Z,23.60
2022-12-08T21:19:06.729Z,24.30
2022-12-08T21:21:34.614Z,24.80
2022-12-08T21:24:05.192Z,24.90
2022-12-08T21:26:33.202Z,24.90
2022-12-08T21:29:01.720Z,24.50
2022-12-08T21:31:32.115Z,24.30
2022-12-08T21:34:01.532Z,25.80
2022-12-08T21:36:31.056Z,24.00
2022-12-08T21:39:02.880Z,23.70
2022-12-08T21:41:48.720Z,23.90
2022-12-08T21:44:18.742Z,23.90
2022-12-08T21:46:46.953Z,23.80
2022-12-08T21:49:15.425Z,23.60
2022-12-08T21:51:43.493Z,24.70
2022-12-08T21:54:18.381Z,25.30
2022-12-08T21:56:48.386Z,25.70
2022-12-08T21:59:18.148Z,25.00
2022-12-08T22:01:46.809Z,25.50
2022-12-08T22:04:18.659Z,27.50
2022-12-08T22:06:47.485Z,26.70
2022-12-08T22:09:16.011Z,26.00
2022-12-08T22:11:44.460Z,25.00
2022-12-08T22:14:14.830Z,25.70
2022-12-08T22:16:44.185Z,25.20
2022-12-08T22:19:12.695Z,27.30
2022-12-08T22:21:40.783Z,26.00
2022-12-08T22:24:09.780Z,27.80
2022-12-08T22:26:37.844Z,27.30
2022-12-08T22:29:05.635Z,27.70
2022-12-08T22:31:33.563Z,28.10
2022-12-08T22:34:01.615Z,29.10
2022-12-08T22:36:29.845Z,28.50
2022-12-08T22:38:58.043Z,27.20
2022-12-08T22:41:26.051Z,27.70
2022-12-08T22:43:54.085Z,25.90
2022-12-08T22:46:25.186Z,27.50
2022-12-08T22:48:54.362Z,26.50
2022-12-08T22:51:22.130Z,26.20
2022-12-08T22:53:50.904Z,26.40
2022-12-08T22:56:19.696Z,26.50
2022-12-08T22:58:47.834Z,25.90
2022-12-08T23:01:26.262Z,26.60
2022-12-08T23:03:54.337Z,25.20
2022-12-08T23:06:22.773Z,25.40
2022-12-08T23:08:51.613Z,27.30
2022-12-08T23:11:21.866Z,26.40
2022-12-08T23:13:49.970Z,28.00
2022-12-08T23:16:18.197Z,26.70
2022-12-08T23:18:46.956Z,28.40
2022-12-08T23:21:17.731Z,28.30
2022-12-08T23:23:45.824Z,29.40
2022-12-08T23:26:28.122Z,28.00
2022-12-08T23:28:57.862Z,29.00
2022-12-08T23:31:27.260Z,29.80
2022-12-08T23:33:56.066Z,30.10
2022-12-08T23:36:26.518Z,29.80
2022-12-08T23:38:54.828Z,29.50
2022-12-08T23:41:22.639Z,28.00
2022-12-08T23:43:54.266Z,29.10
2022-12-08T23:46:25.508Z,32.30
2022-12-08T23:48:53.426Z,28.70
2022-12-08T23:51:22.049Z,30.90
2022-12-08T23:53:49.864Z,27.40
2022-12-08T23:56:18.444Z,26.90
2022-12-08T23:58:46.598Z,28.00
